Time;durP1;ratioP1;P1;durP2;ratioP2;P2;SDS_P1;SDS_P2;PMS_P1;PMS_P2;Temp;Humidity;BMP_temperature;BMP_pressure;BME280_temperature;BME280_humidity;BME280_pressure;Samples;Min_cycle;Max_cycle;Signal;HPM_P1;HPM_P2
2022/03/16 00:02:01;;;;;;;60.90;36.45;;;2.50;99.90;;;;;;5055755;28;20032;-72
2022/03/16 00:04:26;;;;;;;69.13;39.00;;;2.40;99.90;;;;;;5037810;28;20029;-72
2022/03/16 00:06:52;;;;;;;67.97;37.47;;;2.40;99.90;;;;;;5054384;28;20158;-72
2022/03/16 00:09:17;;;;;;;56.20;34.08;;;2.40;99.90;;;;;;5054337;28;20112;-73
2022/03/16 00:11:43;;;;;;;61.75;35.00;;;2.40;99.90;;;;;;5055516;28;20025;-72
2022/03/16 00:14:08;;;;;;;63.67;35.47;;;2.40;99.90;;;;;;5054388;28;20029;-73
2022/03/16 00:16:34;;;;;;;57.22;32.55;;;2.40;99.90;;;;;;5055409;28;20104;-72
2022/03/16 00:18:59;;;;;;;62.00;36.20;;;2.40;99.90;;;;;;5055475;28;20098;-73
2022/03/16 00:21:25;;;;;;;62.30;36.03;;;2.40;99.90;;;;;;5054032;28;20452;-72
2022/03/16 00:23:50;;;;;;;72.97;40.67;;;2.40;99.90;;;;;;5054139;28;20040;-73
2022/03/16 00:26:16;;;;;;;77.80;42.00;;;2.40;99.90;;;;;;5055360;28;20528;-73
2022/03/16 00:28:41;;;;;;;71.80;40.58;;;2.60;99.90;;;;;;5055252;28;20053;-73
2022/03/16 00:31:07;;;;;;;69.07;38.53;;;2.60;99.90;;;;;;5054070;28;20426;-73
2022/03/16 00:33:33;;;;;;;75.82;40.17;;;2.60;99.90;;;;;;5037269;28;20021;-72
2022/03/16 00:35:58;;;;;;;75.18;40.20;;;2.60;99.90;;;;;;5054093;28;20082;-72
2022/03/16 00:38:24;;;;;;;76.85;42.10;;;2.60;99.90;;;;;;5055003;28;20048;-73
2022/03/16 00:40:50;;;;;;;73.07;43.70;;;2.60;99.90;;;;;;5055050;28;20040;-73
2022/03/16 00:43:15;;;;;;;75.38;42.03;;;2.60;99.90;;;;;;5053810;28;20495;-73
2022/03/16 00:45:41;;;;;;;82.93;44.22;;;2.50;99.90;;;;;;5054941;28;20056;-73
2022/03/16 00:48:06;;;;;;;89.15;47.00;;;2.50;99.90;;;;;;5054903;28;20395;-73
2022/03/16 00:50:34;;;;;;;84.93;46.05;;;2.50;99.90;;;;;;5037073;28;20475;-73
2022/03/16 00:53:00;;;;;;;74.20;41.15;;;2.50;99.90;;;;;;5054835;28;20017;-73
2022/03/16 00:55:26;;;;;;;65.70;38.55;;;2.40;99.90;;;;;;5053736;28;20100;-72
2022/03/16 00:57:51;;;;;;;69.05;38.92;;;2.40;99.90;;;;;;5054669;28;20527;-73
2022/03/16 01:00:17;;;;;;;68.50;40.22;;;2.30;99.90;;;;;;5036048;28;20021;-73
2022/03/16 01:02:43;;;;;;;70.70;39.80;;;2.30;99.90;;;;;;5053120;28;20384;-73
2022/03/16 01:05:08;;;;;;;76.70;40.95;;;2.30;99.90;;;;;;5054640;28;20509;-73
2022/03/16 01:07:34;;;;;;;77.00;38.53;;;2.30;99.90;;;;;;5053417;28;20036;-73
2022/03/16 01:09:59;;;;;;;69.05;39.90;;;2.20;99.90;;;;;;5053175;28;20071;-73
2022/03/16 01:12:25;;;;;;;82.28;41.00;;;2.20;99.90;;;;;;5053065;28;20434;-73
2022/03/16 01:14:51;;;;;;;74.13;38.78;;;2.20;99.90;;;;;;5053497;28;20083;-73
2022/03/16 01:17:16;;;;;;;80.60;43.15;;;2.20;99.90;;;;;;5054263;28;20462;-73
2022/03/16 01:19:42;;;;;;;81.60;43.30;;;2.30;99.90;;;;;;5054261;28;20383;-73
2022/03/16 01:22:08;;;;;;;86.80;45.03;;;2.60;99.90;;;;;;5053026;28;20017;-73
2022/03/16 01:24:33;;;;;;;87.63;45.88;;;2.80;99.90;;;;;;5054203;28;20053;-72
2022/03/16 01:26:59;;;;;;;85.65;41.92;;;3.00;99.90;;;;;;5054215;28;20056;-73
2022/03/16 01:29:25;;;;;;;82.63;41.22;;;2.90;99.90;;;;;;5053057;28;20134;-73
2022/03/16 01:31:52;;;;;;;77.80;41.15;;;2.60;99.90;;;;;;5054032;28;20060;-73
2022/03/16 01:34:18;;;;;;;75.93;38.08;;;2.40;99.90;;;;;;5054001;28;20025;-73
2022/03/16 01:36:44;;;;;;;76.70;39.20;;;2.30;99.90;;;;;;5053669;28;20537;-73
2022/03/16 01:39:09;;;;;;;72.25;38.85;;;2.30;99.90;;;;;;5053890;28;20061;-73
2022/03/16 01:41:35;;;;;;;66.65;36.58;;;2.20;99.90;;;;;;5052626;28;20399;-73
2022/03/16 01:44:02;;;;;;;73.95;37.25;;;2.10;99.90;;;;;;5053784;28;20025;-73
2022/03/16 01:46:28;;;;;;;76.03;39.05;;;2.10;99.90;;;;;;5053822;28;20029;-73
2022/03/16 01:48:53;;;;;;;75.78;38.40;;;2.00;99.90;;;;;;5053770;28;20032;-72
2022/03/16 01:51:20;;;;;;;70.70;37.55;;;2.00;99.90;;;;;;5052474;28;20021;-73
2022/03/16 01:53:46;;;;;;;65.93;36.30;;;1.90;99.90;;;;;;5053608;28;20021;-72
2022/03/16 01:56:11;;;;;;;65.05;36.30;;;1.80;99.90;;;;;;5052396;28;20037;-73
2022/03/16 01:58:37;;;;;;;61.53;36.17;;;1.90;99.90;;;;;;5052230;28;20037;-73
2022/03/16 02:01:03;;;;;;;62.40;35.97;;;1.80;99.90;;;;;;5053505;28;20017;-73
2022/03/16 02:03:28;;;;;;;67.53;39.35;;;1.70;99.90;;;;;;5052392;28;20463;-73
2022/03/16 02:05:54;;;;;;;71.10;38.00;;;1.70;99.90;;;;;;5052173;28;20052;-73
2022/03/16 02:08:20;;;;;;;63.97;37.72;;;1.60;99.90;;;;;;5052103;28;20029;-73
2022/03/16 02:10:46;;;;;;;70.50;39.85;;;1.60;99.90;;;;;;5053365;28;20090;-72
2022/03/16 02:13:12;;;;;;;73.75;40.58;;;1.60;99.90;;;;;;5051931;28;20025;-72
2022/03/16 02:15:38;;;;;;;55.88;33.40;;;1.60;99.90;;;;;;5052155;28;20147;-72
2022/03/16 02:18:04;;;;;;;59.75;34.58;;;1.50;99.90;;;;;;5053220;28;20028;-72
2022/03/16 02:20:30;;;;;;;53.10;32.85;;;1.50;99.90;;;;;;5053290;28;20032;-72
2022/03/16 02:22:58;;;;;;;50.10;31.48;;;1.40;99.90;;;;;;5053297;28;20017;-73
2022/03/16 02:25:26;;;;;;;54.60;31.70;;;1.40;99.90;;;;;;5053229;28;20535;-72
2022/03/16 02:27:52;;;;;;;49.63;30.40;;;1.40;99.90;;;;;;5051823;28;20483;-73
2022/03/16 02:30:19;;;;;;;50.40;32.20;;;1.30;99.90;;;;;;5053099;28;20438;-72
2022/03/16 02:32:44;;;;;;;49.80;30.83;;;1.20;99.90;;;;;;5053062;28;20020;-72
2022/03/16 02:35:10;;;;;;;51.30;31.60;;;1.20;99.90;;;;;;5051910;28;20571;-72
2022/03/16 02:37:37;;;;;;;48.67;30.30;;;1.20;99.90;;;;;;5052794;28;20104;-72
2022/03/16 02:40:03;;;;;;;46.95;30.23;;;1.10;99.90;;;;;;5051758;28;20430;-72
2022/03/16 02:42:29;;;;;;;49.75;31.02;;;1.10;99.90;;;;;;5051746;28;20032;-72
2022/03/16 02:44:55;;;;;;;49.70;30.67;;;1.10;99.90;;;;;;5053019;28;20135;-72
2022/03/16 02:47:20;;;;;;;45.42;28.90;;;1.10;99.90;;;;;;5051767;28;20055;-72
2022/03/16 02:49:46;;;;;;;49.67;31.00;;;1.10;99.90;;;;;;5052912;28;20033;-72
2022/03/16 02:52:12;;;;;;;46.35;29.58;;;1.10;99.90;;;;;;5051862;28;20079;-72
2022/03/16 02:54:38;;;;;;;48.22;30.67;;;1.10;99.90;;;;;;5051802;28;20025;-72
2022/03/16 02:57:04;;;;;;;48.10;31.63;;;1.10;99.90;;;;;;5052747;28;20028;-72
2022/03/16 02:59:30;;;;;;;56.85;33.53;;;1.10;99.90;;;;;;5051716;28;20117;-72
2022/03/16 03:01:55;;;;;;;60.38;34.95;;;1.10;99.90;;;;;;5051554;28;20486;-72
2022/03/16 03:04:21;;;;;;;68.18;37.20;;;1.10;99.90;;;;;;5051624;28;20033;-72
2022/03/16 03:06:46;;;;;;;60.22;35.17;;;1.10;99.90;;;;;;5051630;28;20017;-72
2022/03/16 03:09:12;;;;;;;55.35;33.72;;;1.10;99.90;;;;;;5051504;28;20045;-72
2022/03/16 03:11:37;;;;;;;63.78;37.75;;;1.10;99.90;;;;;;5052789;28;20025;-72
2022/03/16 03:14:03;;;;;;;60.83;34.75;;;1.10;99.90;;;;;;5052763;28;20389;-71
2022/03/16 03:16:28;;;;;;;54.65;32.58;;;1.10;99.90;;;;;;5052785;28;20538;-71
2022/03/16 03:18:54;;;;;;;60.13;34.75;;;1.00;99.90;;;;;;5052697;28;20061;-72
2022/03/16 03:21:20;;;;;;;54.28;33.00;;;1.00;99.90;;;;;;5051694;28;20021;-72
2022/03/16 03:23:45;;;;;;;52.63;32.38;;;1.00;99.90;;;;;;5053084;28;20067;-72
2022/03/16 03:26:10;;;;;;;58.35;34.50;;;1.00;99.90;;;;;;5056727;28;20044;-72
2022/03/16 03:28:36;;;;;;;53.58;33.35;;;1.10;99.90;;;;;;5056402;28;20471;-72
2022/03/16 03:31:03;;;;;;;57.60;34.30;;;1.10;99.90;;;;;;5055027;28;20021;-72
2022/03/16 03:33:29;;;;;;;56.35;33.53;;;1.10;99.90;;;;;;5054999;28;20021;-71
2022/03/16 03:35:55;;;;;;;53.83;32.38;;;1.10;99.90;;;;;;5056347;28;20029;-72
2022/03/16 03:38:20;;;;;;;52.70;33.15;;;1.20;99.90;;;;;;5054615;28;20059;-71
2022/03/16 03:40:46;;;;;;;55.50;33.70;;;1.20;99.90;;;;;;5056171;28;20036;-72
2022/03/16 03:43:11;;;;;;;59.13;35.33;;;1.10;99.90;;;;;;5056168;28;20033;-71
2022/03/16 03:45:37;;;;;;;51.17;31.48;;;1.10;99.90;;;;;;5054877;28;20033;-71
2022/03/16 03:48:03;;;;;;;46.47;30.10;;;1.10;99.90;;;;;;5055956;28;20399;-71
2022/03/16 03:50:29;;;;;;;44.65;29.55;;;1.10;99.90;;;;;;5056035;28;20021;-72
2022/03/16 03:52:54;;;;;;;47.90;29.70;;;1.00;99.90;;;;;;5055978;28;20036;-72
2022/03/16 03:55:20;;;;;;;54.33;32.78;;;0.90;99.90;;;;;;5055916;28;20395;-71
2022/03/16 03:57:45;;;;;;;55.20;33.47;;;1.00;99.90;;;;;;5037839;28;20055;-72
2022/03/16 04:00:11;;;;;;;54.30;32.45;;;1.10;99.90;;;;;;5054653;28;20021;-72
2022/03/16 04:02:37;;;;;;;48.28;29.75;;;1.10;99.90;;;;;;5054628;28;20108;-71
2022/03/16 04:05:03;;;;;;;49.80;29.35;;;1.00;99.90;;;;;;5055656;28;20096;-72
2022/03/16 04:07:29;;;;;;;47.55;28.75;;;1.00;99.90;;;;;;5054398;28;20033;-71
2022/03/16 04:09:54;;;;;;;48.00;30.42;;;1.00;99.90;;;;;;5054551;28;20025;-72
2022/03/16 04:12:20;;;;;;;46.80;29.27;;;1.00;99.90;;;;;;5054425;28;20025;-72
2022/03/16 04:14:46;;;;;;;50.30;30.58;;;0.90;99.90;;;;;;5055520;28;20052;-72
2022/03/16 04:17:11;;;;;;;49.72;30.13;;;1.00;99.90;;;;;;5055397;28;20021;-72
2022/03/16 04:19:37;;;;;;;49.20;30.08;;;1.00;99.90;;;;;;5055457;28;20475;-72
2022/03/16 04:22:02;;;;;;;46.47;27.88;;;0.90;99.90;;;;;;5055333;28;20032;-71
2022/03/16 04:24:28;;;;;;;45.90;27.65;;;0.90;99.90;;;;;;5054023;28;20112;-72
2022/03/16 04:26:54;;;;;;;48.15;29.48;;;0.90;99.90;;;;;;5055250;28;20021;-72
2022/03/16 04:29:20;;;;;;;47.78;29.17;;;0.90;99.90;;;;;;5054101;28;20070;-72
2022/03/16 04:31:45;;;;;;;51.97;31.05;;;0.80;99.90;;;;;;5053956;28;20029;-72
2022/03/16 04:34:10;;;;;;;68.82;39.63;;;0.80;99.90;;;;;;5053834;28;20422;-73
2022/03/16 04:36:36;;;;;;;66.00;38.08;;;0.90;99.90;;;;;;5054827;28;20028;-72
2022/03/16 04:39:02;;;;;;;63.72;36.28;;;0.80;99.90;;;;;;5053689;28;20056;-72
2022/03/16 04:41:27;;;;;;;63.40;35.35;;;0.90;99.90;;;;;;5055060;28;20025;-72
2022/03/16 04:43:53;;;;;;;63.15;34.88;;;0.90;99.90;;;;;;5054979;28;20092;-73
2022/03/16 04:46:18;;;;;;;68.72;34.97;;;1.00;99.90;;;;;;5054822;28;20017;-73
2022/03/16 04:48:44;;;;;;;62.70;35.70;;;0.90;99.90;;;;;;5054825;28;20024;-72
2022/03/16 04:51:09;;;;;;;59.65;34.35;;;0.90;99.90;;;;;;5054789;28;20029;-73
2022/03/16 04:53:35;;;;;;;55.28;33.38;;;0.80;99.90;;;;;;5054804;28;20079;-73
2022/03/16 04:56:00;;;;;;;56.42;32.75;;;0.80;99.90;;;;;;5053548;28;20029;-73
2022/03/16 04:58:26;;;;;;;51.22;30.48;;;0.80;99.90;;;;;;5053569;28;20029;-73
2022/03/16 05:00:51;;;;;;;57.55;31.63;;;0.70;99.90;;;;;;5036777;28;20475;-73
2022/03/16 05:03:17;;;;;;;61.28;33.05;;;0.70;99.90;;;;;;5054601;28;20025;-73
2022/03/16 05:05:42;;;;;;;56.25;32.05;;;0.70;99.90;;;;;;5053297;28;20132;-73
2022/03/16 05:08:08;;;;;;;53.88;29.63;;;0.70;99.90;;;;;;5053299;28;20032;-73
2022/03/16 05:10:33;;;;;;;64.72;32.92;;;0.50;99.90;;;;;;5054510;28;20043;-73
2022/03/16 05:12:59;;;;;;;61.55;33.35;;;0.50;99.90;;;;;;5054429;28;20082;-73
2022/03/16 05:15:24;;;;;;;63.03;32.83;;;0.50;99.90;;;;;;5054647;28;20025;-73
2022/03/16 05:17:50;;;;;;;54.38;29.95;;;0.60;99.90;;;;;;5054213;28;20044;-73
2022/03/16 05:20:16;;;;;;;51.85;28.15;;;0.50;99.90;;;;;;5054292;28;20032;-73
2022/03/16 05:22:44;;;;;;;60.78;30.70;;;0.50;99.90;;;;;;5054205;28;20494;-73
2022/03/16 05:25:12;;;;;;;60.35;31.95;;;0.60;99.90;;;;;;5054236;28;20028;-73
2022/03/16 05:27:38;;;;;;;62.92;31.88;;;0.60;99.90;;;;;;5052886;28;20025;-73
2022/03/16 05:30:06;;;;;;;59.30;30.00;;;0.70;99.90;;;;;;5054134;28;20025;-73
2022/03/16 05:32:32;;;;;;;57.80;30.08;;;0.70;99.90;;;;;;5053996;28;20360;-73
2022/03/16 05:34:58;;;;;;;59.85;30.85;;;0.80;99.90;;;;;;5054102;28;20051;-73
2022/03/16 05:37:23;;;;;;;60.28;31.42;;;0.90;99.90;;;;;;5053653;28;20064;-73
2022/03/16 05:39:49;;;;;;;59.47;31.05;;;1.00;99.90;;;;;;5052581;28;20025;-73
2022/03/16 05:42:14;;;;;;;57.28;29.48;;;1.10;99.90;;;;;;5052672;28;20115;-73
2022/03/16 05:44:40;;;;;;;58.60;29.77;;;1.10;99.90;;;;;;5052515;28;20016;-73
2022/03/16 05:47:05;;;;;;;58.22;29.40;;;1.20;99.90;;;;;;5052048;28;20036;-73
2022/03/16 05:49:31;;;;;;;63.13;30.52;;;1.20;99.90;;;;;;5053790;28;20048;-73
2022/03/16 05:51:56;;;;;;;60.13;30.67;;;1.30;99.90;;;;;;5053727;28;20035;-73
2022/03/16 05:54:22;;;;;;;58.95;30.33;;;1.50;99.90;;;;;;5053622;28;20110;-73
2022/03/16 05:56:47;;;;;;;60.63;30.17;;;1.60;99.90;;;;;;5053439;28;20035;-73
2022/03/16 05:59:13;;;;;;;60.65;31.02;;;1.70;99.90;;;;;;5035345;28;20147;-73
2022/03/16 06:01:38;;;;;;;53.45;28.80;;;1.80;99.90;;;;;;5051732;28;20020;-73
2022/03/16 06:04:04;;;;;;;59.58;30.80;;;1.90;99.90;;;;;;5052873;28;20479;-73
2022/03/16 06:06:31;;;;;;;65.03;31.67;;;2.00;99.90;;;;;;5053047;28;20029;-73
2022/03/16 06:08:57;;;;;;;62.42;31.60;;;2.20;99.90;;;;;;5053385;28;20017;-73
2022/03/16 06:11:23;;;;;;;59.15;29.48;;;2.30;99.90;;;;;;5035561;28;20029;-72
2022/03/16 06:13:48;;;;;;;53.55;28.08;;;2.50;99.90;;;;;;5052303;28;20033;-73
2022/03/16 06:16:14;;;;;;;51.05;27.20;;;2.50;99.90;;;;;;5053317;28;20024;-72
2022/03/16 06:18:39;;;;;;;51.97;27.63;;;2.70;99.90;;;;;;5053236;28;20039;-73
2022/03/16 06:21:05;;;;;;;45.38;25.95;;;3.10;99.90;;;;;;5053148;28;20074;-73
2022/03/16 06:23:30;;;;;;;46.53;24.55;;;3.50;99.90;;;;;;5053240;28;20036;-73
2022/03/16 06:25:56;;;;;;;46.25;27.27;;;3.70;99.90;;;;;;5035316;28;20498;-73
2022/03/16 06:28:21;;;;;;;43.28;26.33;;;4.10;99.90;;;;;;5051823;28;20158;-73
2022/03/16 06:30:47;;;;;;;39.47;25.48;;;4.50;99.90;;;;;;5053012;28;20040;-73
2022/03/16 06:33:12;;;;;;;38.35;25.30;;;4.70;99.90;;;;;;5051854;28;20069;-73
2022/03/16 06:35:38;;;;;;;32.83;21.73;;;5.30;99.90;;;;;;5051816;28;20036;-73
2022/03/16 06:38:04;;;;;;;27.88;18.10;;;5.80;99.90;;;;;;5051599;28;20163;-73
2022/03/16 06:40:29;;;;;;;23.73;16.58;;;5.40;99.90;;;;;;5053400;28;20029;-74
2022/03/16 06:42:57;;;;;;;19.80;14.25;;;5.80;99.90;;;;;;5053330;28;20021;-74
2022/03/16 06:45:27;;;;;;;20.27;13.75;;;6.30;99.90;;;;;;5052049;28;20017;-74
2022/03/16 06:47:55;;;;;;;16.10;11.23;;;;;;;;;;5052898;28;20394;-73
2022/03/16 06:50:22;;;;;;;17.40;11.18;;;7.70;99.90;;;;;;5051846;28;20033;-74
2022/03/16 06:52:47;;;;;;;17.45;11.50;;;7.60;99.90;;;;;;5051925;28;20048;-73
2022/03/16 06:55:13;;;;;;;16.27;12.45;;;7.40;99.90;;;;;;5052977;28;20032;-74
2022/03/16 06:57:39;;;;;;;17.83;12.75;;;6.90;99.90;;;;;;5051394;28;20103;-73
2022/03/16 07:00:07;;;;;;;18.48;13.35;;;6.80;99.90;;;;;;5055630;28;20025;-73
2022/03/16 07:03:05;;;;;;;19.98;12.55;;;6.70;99.90;;;;;;5056878;28;20082;-74
2022/03/16 07:05:34;;;;;;;21.05;12.45;;;6.50;99.90;;;;;;5055657;28;20078;-74
2022/03/16 07:08:01;;;;;;;16.23;12.32;;;6.30;99.90;;;;;;5055486;28;20426;-74
2022/03/16 07:10:28;;;;;;;20.42;13.70;;;6.60;99.90;;;;;;5038874;28;20025;-74
2022/03/16 07:12:53;;;;;;;20.90;12.88;;;7.20;99.90;;;;;;5055475;28;20025;-74
2022/03/16 07:15:19;;;;;;;18.75;12.95;;;8.00;99.90;;;;;;5055668;28;20113;-73
2022/03/16 07:17:45;;;;;;;20.15;12.70;;;8.90;99.90;;;;;;5055801;28;20025;-73
2022/03/16 07:20:11;;;;;;;18.92;12.07;;;9.00;99.90;;;;;;5057416;28;20024;-73
2022/03/16 07:22:37;;;;;;;20.00;12.48;;;8.70;99.90;;;;;;5056933;28;20052;-73
2022/03/16 07:25:04;;;;;;;18.75;12.82;;;9.00;99.90;;;;;;5055264;28;20514;-73
2022/03/16 07:27:30;;;;;;;18.63;11.75;;;9.40;99.90;;;;;;5056367;28;20090;-73
2022/03/16 07:29:55;;;;;;;15.02;10.80;;;10.10;99.90;;;;;;5056042;28;20028;-71
2022/03/16 07:32:22;;;;;;;17.48;12.52;;;11.00;99.90;;;;;;5054825;28;20060;-74
2022/03/16 07:34:48;;;;;;;17.20;11.73;;;11.50;99.90;;;;;;5056021;28;20479;-73
2022/03/16 07:37:13;;;;;;;15.65;11.13;;;11.90;99.90;;;;;;5055863;28;20048;-74
2022/03/16 07:39:39;;;;;;;16.23;11.15;;;11.70;99.90;;;;;;5054780;28;20024;-74
2022/03/16 07:42:05;;;;;;;15.95;11.80;;;11.40;99.90;;;;;;5054954;28;20021;-74
2022/03/16 07:44:30;;;;;;;16.45;12.02;;;12.00;99.90;;;;;;5056051;28;20032;-74
2022/03/16 07:46:56;;;;;;;18.92;11.98;;;12.10;99.90;;;;;;5054812;28;20025;-66
2022/03/16 07:49:21;;;;;;;16.58;11.63;;;12.10;99.90;;;;;;5054451;28;20104;-65
2022/03/16 07:51:47;;;;;;;15.52;11.15;;;12.10;99.90;;;;;;5053975;28;20038;-65
2022/03/16 07:54:12;;;;;;;18.80;12.32;;;12.50;99.90;;;;;;5055363;28;20064;-74
2022/03/16 07:56:38;;;;;;;18.23;11.93;;;12.50;99.90;;;;;;5054411;28;20490;-73
2022/03/16 07:59:04;;;;;;;20.23;11.48;;;12.50;99.90;;;;;;5034271;28;20025;-73
2022/03/16 08:01:29;;;;;;;19.98;13.05;;;12.50;99.90;;;;;;5034617;28;20021;-73
2022/03/16 08:03:55;;;;;;;17.63;12.23;;;11.60;99.90;;;;;;5035657;28;20101;-73
2022/03/16 08:06:21;;;;;;;18.73;12.50;;;12.00;99.90;;;;;;5034307;28;20075;-73
2022/03/16 08:08:46;;;;;;;20.75;13.13;;;12.10;99.90;;;;;;5034222;28;20071;-74
2022/03/16 08:11:12;;;;;;;22.42;12.82;;;11.50;99.90;;;;;;5048445;28;20021;-73
2022/03/16 08:13:38;;;;;;;19.70;13.52;;;11.60;99.90;;;;;;5050858;28;20031;-74
2022/03/16 08:16:04;;;;;;;20.50;12.93;;;12.20;99.90;;;;;;5035276;28;20032;-75
2022/03/16 08:18:30;;;;;;;23.33;13.18;;;12.80;99.90;;;;;;5050855;28;20029;-73
2022/03/16 08:20:56;;;;;;;21.75;13.27;;;13.50;99.90;;;;;;5050715;28;20071;-75
2022/03/16 08:23:22;;;;;;;18.60;13.55;;;13.60;99.90;;;;;;5048760;28;20036;-74
2022/03/16 08:25:48;;;;;;;21.08;13.20;;;14.00;99.90;;;;;;5061312;28;20493;-69
2022/03/16 08:28:14;;;;;;;23.35;14.43;;;14.40;99.90;;;;;;5053729;28;20028;-67
2022/03/16 08:30:40;;;;;;;22.95;13.98;;;14.20;99.90;;;;;;5053852;28;20029;-68
2022/03/16 08:33:06;;;;;;;20.20;14.02;;;14.80;99.90;;;;;;5053966;28;20498;-76
2022/03/16 08:35:32;;;;;;;25.30;15.00;;;14.50;99.90;;;;;;5054177;28;20127;-72
2022/03/16 08:37:57;;;;;;;22.35;13.82;;;15.00;99.90;;;;;;5053737;28;20045;-73
2022/03/16 08:40:24;;;;;;;23.33;15.40;;;15.40;99.90;;;;;;5053685;28;20475;-76
2022/03/16 08:42:51;;;;;;;24.17;16.00;;;14.40;99.90;;;;;;5055141;28;20457;-74
2022/03/16 08:45:16;;;;;;;23.15;16.48;;;14.10;99.90;;;;;;5053422;28;20025;-76
2022/03/16 08:47:43;;;;;;;26.60;16.50;;;14.00;99.90;;;;;;5036746;28;20044;-76
2022/03/16 08:50:09;;;;;;;26.95;15.63;;;14.60;99.90;;;;;;5053566;28;20046;-75
2022/03/16 08:52:34;;;;;;;23.02;15.57;;;15.80;99.90;;;;;;5036763;28;20026;-75
2022/03/16 08:55:00;;;;;;;25.65;16.17;;;16.00;99.90;;;;;;5053497;28;20025;-76
2022/03/16 08:57:26;;;;;;;24.58;16.65;;;16.40;99.90;;;;;;5053227;28;20121;-75
2022/03/16 08:59:53;;;;;;;24.80;16.33;;;16.20;99.90;;;;;;5053250;28;20021;-77
2022/03/16 09:02:18;;;;;;;27.60;16.92;;;16.30;99.90;;;;;;5053230;28;20021;-76
2022/03/16 09:04:44;;;;;;;28.80;17.92;;;14.90;99.90;;;;;;5053511;28;20151;-77
2022/03/16 09:07:10;;;;;;;24.35;16.13;;;15.50;99.90;;;;;;5020249;28;20467;-76
2022/03/16 09:09:36;;;;;;;21.73;15.77;;;16.10;99.90;;;;;;5036414;28;20021;-77
2022/03/16 09:12:01;;;;;;;23.35;17.08;;;16.30;99.90;;;;;;5054019;28;20029;-76
2022/03/16 09:14:27;;;;;;;24.48;16.60;;;16.60;99.90;;;;;;5054209;28;20033;-77
2022/03/16 09:16:53;;;;;;;22.65;15.95;;;16.80;99.90;;;;;;5054259;28;20520;-76
2022/03/16 09:19:21;;;;;;;29.13;17.05;;;15.60;99.90;;;;;;5034535;28;20040;-76
2022/03/16 09:21:48;;;;;;;24.80;16.23;;;15.10;99.90;;;;;;5053330;28;20025;-76
2022/03/16 09:24:15;;;;;;;27.55;18.38;;;15.10;99.90;;;;;;5052710;28;20104;-75
2022/03/16 09:26:40;;;;;;;27.05;17.42;;;15.50;99.90;;;;;;5052959;28;20025;-77
2022/03/16 09:29:09;;;;;;;26.60;17.48;;;15.20;99.90;;;;;;5053997;28;20039;-75
2022/03/16 09:31:36;;;;;;;28.92;18.40;;;15.20;99.90;;;;;;5052657;28;20029;-76
2022/03/16 09:34:05;;;;;;;29.25;17.00;;;15.40;99.90;;;;;;5054974;28;20087;-77
2022/03/16 09:36:32;;;;;;;25.10;17.00;;;15.90;99.90;;;;;;5059248;28;20029;-77
2022/03/16 09:38:58;;;;;;;31.80;18.17;;;15.90;99.90;;;;;;5053616;28;20063;-77
2022/03/16 09:41:26;;;;;;;29.55;17.65;;;15.60;99.90;;;;;;5052407;28;20094;-77
2022/03/16 09:43:53;;;;;;;29.13;18.60;;;15.40;99.90;;;;;;5054036;28;20036;-76
2022/03/16 09:46:22;;;;;;;31.75;18.80;;;15.00;99.90;;;;;;5053580;28;20029;-75
2022/03/16 09:48:48;;;;;;;28.10;18.02;;;15.30;99.90;;;;;;5053623;28;20068;-75
2022/03/16 09:51:16;;;;;;;26.80;17.23;;;16.00;99.90;;;;;;5052061;28;20063;-74
2022/03/16 09:53:42;;;;;;;27.73;17.33;;;15.70;99.90;;;;;;5053106;28;20130;-74
2022/03/16 09:56:09;;;;;;;32.13;18.30;;;15.50;99.90;;;;;;5053418;28;20056;-74
2022/03/16 09:58:35;;;;;;;29.80;18.80;;;15.40;99.90;;;;;;5053142;28;20399;-74
2022/03/16 10:01:05;;;;;;;30.70;18.38;;;15.00;99.90;;;;;;5052486;28;20044;-73
2022/03/16 10:03:30;;;;;;;33.08;18.80;;;15.40;99.90;;;;;;5052664;28;20013;-74
2022/03/16 10:05:57;;;;;;;28.85;17.85;;;15.90;99.90;;;;;;5051849;28;20075;-74
2022/03/16 10:08:33;;;;;;;28.55;18.63;;;16.20;99.90;;;;;;5053194;28;20024;-74
2022/03/16 10:14:11;;;;;;;30.50;18.48;;;16.10;99.90;;;;;;5051863;28;20033;-74
2022/03/16 10:19:48;;;;;;;24.83;17.67;;;16.30;99.90;;;;;;5052687;28;20072;-75
2022/03/16 10:22:22;;;;;;;26.38;17.80;;;16.40;99.90;;;;;;5053190;28;20032;-76
2022/03/16 10:24:48;;;;;;;26.58;17.95;;;15.90;99.90;;;;;;5051722;28;20122;-73
2022/03/16 10:27:17;;;;;;;29.58;18.80;;;16.30;99.90;;;;;;5051736;28;20032;-74
2022/03/16 10:29:42;;;;;;;30.88;18.83;;;16.30;99.90;;;;;;5051858;28;20020;-74
2022/03/16 10:32:08;;;;;;;31.23;18.27;;;15.50;99.90;;;;;;5052921;28;20108;-75
2022/03/16 10:34:33;;;;;;;30.27;19.63;;;15.70;99.90;;;;;;5050351;28;20494;-74
2022/03/16 10:36:59;;;;;;;26.23;17.58;;;15.70;99.90;;;;;;5051474;28;20064;-74
2022/03/16 10:39:34;;;;;;;27.38;17.50;;;15.50;99.90;;;;;;5050792;28;20029;-74
2022/03/16 10:48:22;;;;;;;28.63;18.05;;;15.60;99.90;;;;;;5051737;28;20360;-73
2022/03/16 10:50:50;;;;;;;26.77;17.02;;;15.70;99.90;;;;;;5038962;28;20098;-73
2022/03/16 10:53:17;;;;;;;25.27;17.40;;;15.50;99.90;;;;;;5052825;28;20398;-74
2022/03/16 10:55:45;;;;;;;25.65;16.17;;;15.70;99.90;;;;;;5051002;28;20033;-73
2022/03/16 10:58:12;;;;;;;26.48;17.20;;;15.90;99.90;;;;;;5034720;28;20029;-75
2022/03/16 11:00:39;;;;;;;25.48;17.85;;;15.90;99.90;;;;;;5051043;28;20021;-74
2022/03/16 11:03:07;;;;;;;25.30;16.67;;;15.80;99.90;;;;;;5051353;28;20032;-74
2022/03/16 11:05:36;;;;;;;28.08;17.08;;;15.80;99.90;;;;;;5051404;28;20032;-74
2022/03/16 11:08:07;;;;;;;26.08;17.60;;;16.10;99.90;;;;;;5051285;28;20509;-73
2022/03/16 11:10:35;;;;;;;26.85;16.38;;;16.70;99.90;;;;;;5052550;28;20025;-75
2022/03/16 11:13:33;;;;;;;25.25;16.50;;;17.40;99.90;;;;;;5051638;28;20391;-75
2022/03/16 11:15:50;;;;;;;23.60;16.65;;;17.30;99.90;;;;;;5052319;28;20399;-74
2022/03/16 11:18:18;;;;;;;22.48;16.25;;;17.30;99.90;;;;;;5052494;28;20021;-72
2022/03/16 11:20:47;;;;;;;23.38;15.82;;;17.40;99.90;;;;;;5051290;28;20021;-73
2022/03/16 11:29:07;;;;;;;22.55;16.45;;;17.20;98.30;;;;;;5110949;27;20358;-70
2022/03/16 11:31:34;;;;;;;22.08;16.40;;;16.70;99.90;;;;;;5111001;28;20028;-71
2022/03/16 11:34:10;;;;;;;20.65;16.17;;;16.40;99.90;;;;;;5109570;28;20080;-71
2022/03/16 11:36:40;;;;;;;24.27;17.00;;;16.40;99.60;;;;;;5108898;28;20058;-72
2022/03/16 11:39:22;;;;;;;22.40;17.08;;;16.20;99.40;;;;;;5110582;28;20073;-72
2022/03/16 11:41:52;;;;;;;24.27;16.33;;;16.20;99.90;;;;;;5109207;28;20028;-72
2022/03/16 11:44:26;;;;;;;17.88;14.98;;;15.90;99.30;;;;;;5109445;28;20034;-72
2022/03/16 11:46:55;;;;;;;20.23;14.43;;;15.90;99.60;;;;;;5109315;28;20102;-72
2022/03/16 11:49:26;;;;;;;20.13;16.30;;;15.80;98.80;;;;;;5109437;28;20027;-71
2022/03/16 11:52:01;;;;;;;21.17;15.85;;;16.00;99.40;;;;;;5109365;28;20099;-71
2022/03/16 11:54:49;;;;;;;19.73;14.50;;;15.70;98.70;;;;;;5109032;28;20019;-70
2022/03/16 11:57:35;;;;;;;20.77;15.05;;;15.40;99.00;;;;;;5093024;28;20015;-71
2022/03/16 12:00:13;;;;;;;19.77;14.52;;;15.40;99.60;;;;;;5119531;28;20192;-71
2022/03/16 12:02:38;;;;;;;23.83;16.02;;;15.70;99.00;;;;;;5091404;28;20061;-71
2022/03/16 12:05:04;;;;;;;20.45;14.55;;;15.70;97.90;;;;;;5110144;28;20111;-72
2022/03/16 12:07:33;;;;;;;20.30;13.75;;;15.80;99.90;;;;;;5092252;28;20034;-72
2022/03/16 12:10:06;;;;;;;21.67;13.32;;;15.70;98.00;;;;;;5108935;28;20031;-72
2022/03/16 12:15:25;;;;;;;21.20;14.18;;;15.30;98.40;;;;;;5094784;27;20368;-73
2022/03/16 12:20:49;;;;;;;21.38;14.52;;;15.40;99.50;;;;;;5110791;27;20095;-72
2022/03/16 12:23:18;;;;;;;18.42;14.20;;;15.20;98.50;;;;;;5109744;28;20455;-72
2022/03/16 12:25:46;;;;;;;20.42;13.45;;;15.20;99.90;;;;;;5092926;28;20035;-72
2022/03/16 12:31:06;;;;;;;20.83;13.55;;;15.20;99.60;;;;;;5110597;28;20032;-70
2022/03/16 12:33:37;;;;;;;20.53;13.63;;;15.30;99.40;;;;;;5092801;28;20074;-72
2022/03/16 12:36:10;;;;;;;20.15;13.25;;;15.40;98.80;;;;;;5109341;28;20258;-71
2022/03/16 12:38:37;;;;;;;16.48;12.23;;;15.30;99.40;;;;;;5092775;28;20032;-71
2022/03/16 12:43:56;;;;;;;18.40;11.52;;;15.50;99.60;;;;;;5110287;28;20035;-71
2022/03/16 12:46:33;;;;;;;18.58;12.48;;;15.60;98.50;;;;;;5110378;28;20098;-71
2022/03/16 12:49:03;;;;;;;18.35;12.63;;;15.50;96.60;;;;;;5109136;28;20030;-71
2022/03/16 12:51:50;;;;;;;18.67;13.23;;;15.60;98.50;;;;;;5110401;28;20379;-71
2022/03/16 12:54:28;;;;;;;20.10;12.73;;;15.50;97.90;;;;;;5110228;28;20031;-73
2022/03/16 12:57:01;;;;;;;21.73;13.77;;;15.30;98.00;;;;;;5109058;28;20024;-72
2022/03/16 12:59:31;;;;;;;19.17;12.73;;;15.20;99.20;;;;;;5110154;28;20113;-71
2022/03/16 13:01:58;;;;;;;17.70;12.43;;;15.30;98.80;;;;;;5110155;28;20016;-72